createdAt,value
2023-01-07T00:03:43.078Z,1012.2
2023-01-07T00:08:49.281Z,1012.1
2023-01-07T00:13:55.664Z,1012.2
2023-01-07T00:19:02.172Z,1012.1
2023-01-07T00:23:58.518Z,1012.2
2023-01-07T00:29:04.789Z,1012.1
2023-01-07T00:34:21.339Z,1012.1
2023-01-07T00:39:16.576Z,1012.0
2023-01-07T00:44:23.959Z,1012.0
2023-01-07T00:49:40.495Z,1011.9
2023-01-07T00:54:45.764Z,1012.0
2023-01-07T00:59:54.701Z,1011.8
2023-01-07T01:05:01.185Z,1011.8
2023-01-07T01:10:27.526Z,1011.8
2023-01-07T01:15:13.999Z,1011.7
2023-01-07T01:20:10.608Z,1011.8
2023-01-07T01:26:10.997Z,1011.8
2023-01-07T01:30:33.302Z,1011.8
2023-01-07T01:35:39.829Z,1011.8
2023-01-07T01:40:46.058Z,1011.8
2023-01-07T01:46:52.606Z,1011.8
2023-01-07T01:50:58.940Z,1011.9
2023-01-07T01:56:05.199Z,1011.8
2023-01-07T02:01:11.819Z,1011.8
2023-01-07T02:06:18.371Z,1011.7
2023-01-07T02:11:28.784Z,1011.6
2023-01-07T02:16:55.263Z,1011.6
2023-01-07T02:21:37.721Z,1011.5
2023-01-07T02:26:33.964Z,1011.5
2023-01-07T02:31:50.437Z,1011.6
2023-01-07T02:36:56.871Z,1011.5
2023-01-07T02:42:03.260Z,1011.6
2023-01-07T02:47:09.645Z,1011.5
2023-01-07T02:52:16.176Z,1011.3
2023-01-07T02:57:21.431Z,1011.3
2023-01-07T03:02:28.820Z,1011.2
2023-01-07T03:07:35.302Z,1011.2
2023-01-07T03:12:41.578Z,1011.2
2023-01-07T03:17:47.998Z,1011.1
2023-01-07T03:22:54.482Z,1011.2
2023-01-07T03:28:00.716Z,1011.1
2023-01-07T03:33:07.112Z,1011.0
2023-01-07T03:38:13.629Z,1011.0
2023-01-07T03:43:19.888Z,1011.1
2023-01-07T03:48:26.264Z,1011.0
2023-01-07T03:53:52.836Z,1011.0
2023-01-07T03:58:29.042Z,1010.9
2023-01-07T04:03:45.451Z,1010.9
2023-01-07T04:09:12.072Z,1010.8
2023-01-07T04:13:58.268Z,1010.7
2023-01-07T04:20:16.921Z,1010.8
2023-01-07T04:24:01.143Z,1010.7
2023-01-07T04:29:20.697Z,1010.6
2023-01-07T04:34:23.945Z,1010.5
2023-01-07T04:39:20.324Z,1010.4
2023-01-07T04:44:36.927Z,1010.5
2023-01-07T04:49:43.305Z,1010.4
2023-01-07T04:54:49.682Z,1010.3
2023-01-07T04:59:46.299Z,1010.2
2023-01-07T05:05:26.664Z,1010.2
2023-01-07T05:10:09.007Z,1010.2
2023-01-07T05:15:15.503Z,1010.1
2023-01-07T05:20:21.802Z,1010.0
2023-01-07T05:25:28.192Z,1010.0
2023-01-07T05:30:34.769Z,1009.9
2023-01-07T05:35:40.963Z,1009.9
2023-01-07T05:40:49.519Z,1009.9
2023-01-07T05:46:14.182Z,1009.8
2023-01-07T05:50:50.406Z,1009.8
2023-01-07T05:55:56.799Z,1009.9
2023-01-07T06:01:13.286Z,1009.8
2023-01-07T06:06:19.775Z,1009.9
2023-01-07T06:11:26.033Z,1009.8
2023-01-07T06:16:32.440Z,1009.9
2023-01-07T06:21:58.998Z,1009.8
2023-01-07T06:26:45.186Z,1009.8
2023-01-07T06:31:51.609Z,1009.7
2023-01-07T06:36:48.080Z,1009.7
2023-01-07T06:42:04.706Z,1009.7
2023-01-07T06:47:00.990Z,1009.6
2023-01-07T06:52:17.398Z,1009.5
2023-01-07T06:57:23.931Z,1009.5
2023-01-07T07:02:30.391Z,1009.6
2023-01-07T07:07:36.861Z,1009.6
2023-01-07T07:12:43.656Z,1009.5
2023-01-07T07:18:12.677Z,1009.5
2023-01-07T07:23:00.011Z,1009.4
2023-01-07T07:28:02.419Z,1009.4
2023-01-07T07:32:58.840Z,1009.4
2023-01-07T07:38:39.295Z,1009.2
2023-01-07T07:43:21.728Z,1009.2
2023-01-07T07:48:27.980Z,1009.2
2023-01-07T07:53:54.558Z,1009.2
2023-01-07T07:58:41.054Z,1009.2
2023-01-07T08:04:07.297Z,1009.2
2023-01-07T08:08:53.648Z,1009.2
2023-01-07T08:13:50.261Z,1009.2
2023-01-07T08:20:07.352Z,1009.2
2023-01-07T08:24:13.682Z,1009.1
2023-01-07T08:29:20.159Z,1009.0
2023-01-07T08:34:26.433Z,1009.1
2023-01-07T08:39:53.095Z,1009.0
2023-01-07T08:44:53.580Z,1009.0
2023-01-07T08:49:34.788Z,1009.0
2023-01-07T08:54:52.220Z,1009.0
2023-01-07T08:59:48.558Z,1009.0
2023-01-07T09:05:05.100Z,1008.9
2023-01-07T09:10:11.407Z,1008.9
2023-01-07T09:15:17.805Z,1008.8
2023-01-07T09:20:24.354Z,1008.7
2023-01-07T09:25:30.660Z,1008.6
2023-01-07T09:30:37.037Z,1008.7
2023-01-07T09:35:43.548Z,1008.6
2023-01-07T09:40:39.853Z,1008.5
2023-01-07T09:45:56.408Z,1008.5
2023-01-07T09:51:02.859Z,1008.5
2023-01-07T09:56:12.019Z,1008.5
2023-01-07T10:01:14.550Z,1008.4
2023-01-07T10:06:12.061Z,1008.5
2023-01-07T10:11:28.327Z,1008.4
2023-01-07T10:16:34.812Z,1008.3
2023-01-07T10:21:41.221Z,1008.3
2023-01-07T10:26:47.473Z,1008.2
2023-01-07T10:31:53.875Z,1008.2
2023-01-07T10:37:24.613Z,1008.0
2023-01-07T10:42:06.842Z,1008.0
2023-01-07T10:47:13.270Z,1008.0
2023-01-07T10:52:19.647Z,1007.9
2023-01-07T10:57:26.229Z,1007.7
2023-01-07T11:02:32.695Z,1007.6
2023-01-07T11:07:38.870Z,1007.5
2023-01-07T11:12:45.397Z,1007.3
2023-01-07T11:18:15.684Z,1007.2
2023-01-07T11:22:58.041Z,1007.2
2023-01-07T11:28:04.566Z,1007.0
2023-01-07T11:33:10.855Z,1006.9
2023-01-07T11:38:17.240Z,1006.8
2023-01-07T11:43:23.757Z,1006.7
2023-01-07T11:48:54.657Z,1006.5
2023-01-07T11:53:37.004Z,1006.4
2023-01-07T11:58:43.555Z,1006.0
2023-01-07T12:04:13.899Z,1005.7
2023-01-07T12:08:56.236Z,1005.5
2023-01-07T12:14:02.762Z,1005.4
2023-01-07T12:19:32.144Z,1005.1
2023-01-07T12:24:15.602Z,1004.9
2023-01-07T12:29:22.213Z,1004.9
2023-01-07T12:34:28.454Z,1005.1
2023-01-07T12:39:24.816Z,1005.3
2023-01-07T12:44:31.348Z,1005.4
2023-01-07T12:49:37.583Z,1005.3
2023-01-07T12:54:53.996Z,1005.2
2023-01-07T13:00:00.544Z,1005.0
2023-01-07T13:05:06.871Z,1004.8
2023-01-07T13:10:03.216Z,1004.4
2023-01-07T13:15:18.759Z,1004.5
2023-01-07T13:20:26.025Z,1004.4
2023-01-07T13:25:32.398Z,1004.4
2023-01-07T13:31:03.140Z,1004.6
2023-01-07T13:35:45.377Z,1004.6
2023-01-07T13:40:41.753Z,1004.3
2023-01-07T13:46:22.427Z,1004.7
2023-01-07T13:51:03.615Z,1004.3
2023-01-07T13:56:45.104Z,1004.5
2023-01-07T14:01:52.773Z,1004.6
2023-01-07T14:06:58.864Z,1004.7
2023-01-07T14:12:05.242Z,1004.4
2023-01-07T14:17:15.340Z,1004.8
2023-01-07T14:22:21.581Z,1004.6
2023-01-07T14:27:27.964Z,1004.5
2023-01-07T14:32:34.478Z,1004.1
2023-01-07T14:37:40.744Z,1004.3
2023-01-07T14:43:11.235Z,1004.2
2023-01-07T14:48:28.780Z,1004.0
2023-01-07T14:56:24.239Z,1003.7
2023-01-07T14:58:42.408Z,1003.7
2023-01-07T15:03:48.904Z,1003.7
2023-01-07T15:09:15.179Z,1003.6
2023-01-07T15:14:01.525Z,1003.6
2023-01-07T15:19:28.051Z,1003.6
2023-01-07T15:24:38.419Z,1003.4
2023-01-07T15:29:10.872Z,1003.4
2023-01-07T15:34:47.442Z,1003.2
2023-01-07T15:39:33.680Z,1003.1
2023-01-07T15:45:00.163Z,1003.1
2023-01-07T15:49:46.458Z,1003.0
2023-01-07T15:54:42.969Z,1003.0
2023-01-07T16:00:00.227Z,1002.9
2023-01-07T16:05:26.719Z,1002.8
2023-01-07T16:10:13.209Z,1002.7
2023-01-07T16:15:43.696Z,1002.5
2023-01-07T16:20:27.558Z,1002.6
2023-01-07T16:26:56.566Z,1002.5
2023-01-07T16:30:58.882Z,1002.5
2023-01-07T16:35:45.106Z,1002.5
2023-01-07T16:40:51.493Z,1002.4
2023-01-07T16:46:42.113Z,1002.4
2023-01-07T16:51:48.321Z,1002.2
2023-01-07T16:56:10.649Z,1002.2
2023-01-07T17:01:37.173Z,1002.1
2023-01-07T17:07:47.667Z,1002.1
2023-01-07T17:11:29.778Z,1002.1
2023-01-07T17:18:08.325Z,1002.1
2023-01-07T17:22:06.604Z,1002.1
2023-01-07T17:26:49.074Z,1002.0
2023-01-07T17:31:55.444Z,1002.0
2023-01-07T17:37:21.758Z,1001.9
2023-01-07T17:42:08.234Z,1002.0
2023-01-07T17:47:34.535Z,1001.9
2023-01-07T17:52:20.858Z,1001.9
2023-01-07T17:57:17.353Z,1001.8
2023-01-07T18:02:53.950Z,1001.9
2023-01-07T18:07:40.263Z,1001.9
2023-01-07T18:12:46.783Z,1002.0
2023-01-07T18:17:53.046Z,1001.9
2023-01-07T18:23:23.477Z,1001.9
2023-01-07T18:28:05.939Z,1001.8
2023-01-07T18:33:33.729Z,1001.7
2023-01-07T18:38:42.656Z,1001.7
2023-01-07T18:43:25.153Z,1001.7
2023-01-07T18:48:31.350Z,1001.6
2023-01-07T18:53:37.871Z,1001.6
2023-01-07T18:58:48.394Z,1001.5
2023-01-07T19:03:50.685Z,1001.4
2023-01-07T19:09:17.071Z,1001.2
2023-01-07T19:14:03.567Z,1001.3
2023-01-07T19:19:09.826Z,1001.1
2023-01-07T19:24:06.187Z,1001.0
2023-01-07T19:29:22.787Z,1000.9
2023-01-07T19:34:29.057Z,1000.9
2023-01-07T19:39:36.020Z,1000.9
2023-01-07T19:44:42.545Z,1000.8
2023-01-07T19:49:48.795Z,1000.8
2023-01-07T19:54:55.167Z,1000.8
2023-01-07T20:00:01.675Z,1000.9
2023-01-07T20:10:37.567Z,1000.9
2023-01-07T20:16:33.461Z,1000.8
2023-01-07T20:20:17.556Z,1000.8
2023-01-07T20:25:54.404Z,1000.7
2023-01-07T20:30:30.725Z,1000.9
2023-01-07T20:36:07.379Z,1000.7
2023-01-07T20:40:52.607Z,1000.6
2023-01-07T20:46:00.248Z,1000.6
2023-01-07T20:50:56.693Z,1000.6
2023-01-07T20:56:13.392Z,1000.7
2023-01-07T21:01:18.827Z,1000.7
2023-01-07T21:06:26.068Z,1000.4
2023-01-07T21:11:32.572Z,1000.5
2023-01-07T21:16:37.907Z,1000.4
2023-01-07T21:21:45.295Z,1000.5
2023-01-07T21:26:51.827Z,1000.5
2023-01-07T21:31:58.170Z,1000.5
2023-01-07T21:37:04.533Z,1000.4
2023-01-07T21:42:11.024Z,1000.1
2023-01-07T21:47:17.342Z,1000.3
2023-01-07T21:52:23.795Z,1000.1
2023-01-07T21:57:30.237Z,1000.3
2023-01-07T22:02:36.513Z,1000.3
2023-01-07T22:08:03.006Z,1000.3
2023-01-07T22:12:49.569Z,1000.3
2023-01-07T22:17:55.824Z,1000.5
2023-01-07T22:23:02.200Z,1000.5
2023-01-07T22:28:08.694Z,1000.4
2023-01-07T22:33:15.085Z,1000.5
2023-01-07T22:38:21.499Z,1000.4
2023-01-07T22:43:28.007Z,1000.5
2023-01-07T22:48:33.276Z,1000.3
2023-01-07T22:53:40.709Z,1000.4
2023-01-07T22:58:47.181Z,1000.3
2023-01-07T23:03:53.501Z,1000.3
2023-01-07T23:08:49.952Z,1000.3
2023-01-07T23:14:06.501Z,1000.1
2023-01-07T23:19:02.828Z,1000.2
2023-01-07T23:24:19.273Z,1000.1
2023-01-07T23:29:25.772Z,1000.0
2023-01-07T23:34:32.068Z,999.9
2023-01-07T23:39:38.466Z,1000.0
2023-01-07T23:44:45.038Z,999.9
2023-01-07T23:49:51.352Z,1000.0
2023-01-07T23:54:57.832Z,999.9
